createdAt,value
2023-10-19T00:01:30.210Z,101126.52
2023-10-19T00:03:58.741Z,101122.70
2023-10-19T00:06:27.116Z,101125.46
2023-10-19T00:08:55.376Z,101126.14
2023-10-19T00:11:25.596Z,101126.17
2023-10-19T00:13:59.270Z,101123.89
2023-10-19T00:16:30.933Z,101122.67
2023-10-19T00:19:01.157Z,101122.31
2023-10-19T00:21:29.529Z,101119.77
2023-10-19T00:23:59.463Z,101123.20
2023-10-19T00:26:30.662Z,101126.23
2023-10-19T00:29:09.834Z,101123.42
2023-10-19T00:31:41.866Z,101123.63
2023-10-19T00:34:10.190Z,101118.30
2023-10-19T00:36:40.483Z,101122.67
2023-10-19T00:39:17.050Z,101124.52
2023-10-19T00:41:46.987Z,101125.55
2023-10-19T00:44:24.019Z,101121.08
2023-10-19T00:47:01.968Z,101119.59
2023-10-19T00:49:32.178Z,101124.89
2023-10-19T00:52:12.330Z,101128.73
2023-10-19T00:54:50.172Z,101125.71
2023-10-19T00:57:35.394Z,101126.19
2023-10-19T01:00:13.464Z,101122.73
2023-10-19T01:02:46.785Z,101123.63
2023-10-19T01:05:15.175Z,101120.96
2023-10-19T01:07:43.327Z,101118.69
2023-10-19T01:10:21.683Z,101113.92
2023-10-19T01:12:51.845Z,101113.70
2023-10-19T01:15:30.898Z,101116.50
2023-10-19T01:18:00.550Z,101115.23
2023-10-19T01:20:30.664Z,101112.56
2023-10-19T01:23:09.574Z,101109.84
2023-10-19T01:25:55.349Z,101111.35
2023-10-19T01:28:46.046Z,101110.88
2023-10-19T01:31:18.741Z,101108.11
2023-10-19T01:33:47.359Z,101107.30
2023-10-19T01:36:25.711Z,101103.96
2023-10-19T01:39:11.711Z,101100.82
2023-10-19T01:41:42.951Z,101104.05
2023-10-19T01:44:15.114Z,101100.25
2023-10-19T01:46:47.838Z,101096.90
2023-10-19T01:49:27.633Z,101092.55
2023-10-19T01:51:56.488Z,101094.52
2023-10-19T01:54:26.311Z,101094.98
2023-10-19T01:56:57.826Z,101093.25
2023-10-19T01:59:28.926Z,101093.39
2023-10-19T02:01:58.674Z,101093.58
2023-10-19T02:04:27.564Z,101091.30
2023-10-19T02:06:56.450Z,101083.70
2023-10-19T02:09:27.811Z,101087.65
2023-10-19T02:11:58.630Z,101087.88
2023-10-19T02:14:32.268Z,101087.61
2023-10-19T02:17:04.860Z,101088.20
2023-10-19T02:19:34.030Z,101092.00
2023-10-19T02:22:13.292Z,101092.38
2023-10-19T02:24:41.464Z,101091.76
2023-10-19T02:27:16.471Z,101094.98
2023-10-19T02:29:48.140Z,101095.77
2023-10-19T02:32:19.589Z,101101.13
2023-10-19T02:34:47.800Z,101098.90
2023-10-19T02:37:15.987Z,101096.68
2023-10-19T02:39:45.139Z,101092.44
2023-10-19T02:42:13.341Z,101094.48
2023-10-19T02:44:41.526Z,101092.78
2023-10-19T02:47:12.905Z,101097.90
2023-10-19T02:49:44.694Z,101096.56
2023-10-19T02:52:17.541Z,101098.40
2023-10-19T02:54:46.796Z,101099.27
2023-10-19T02:57:15.734Z,101097.86
2023-10-19T02:59:44.245Z,101099.92
2023-10-19T03:02:15.421Z,101101.08
2023-10-19T03:04:44.805Z,101102.75
2023-10-19T03:07:14.315Z,101101.41
2023-10-19T03:09:54.953Z,101103.08
2023-10-19T03:12:27.963Z,101099.23
2023-10-19T03:14:56.761Z,101094.70
2023-10-19T03:17:26.904Z,101095.17
2023-10-19T03:19:56.827Z,101090.77
2023-10-19T03:22:26.538Z,101090.48
2023-10-19T03:25:12.864Z,101090.31
2023-10-19T03:27:41.693Z,101088.88
2023-10-19T03:30:15.706Z,101085.46
2023-10-19T03:32:44.095Z,101085.15
2023-10-19T03:35:16.690Z,101081.06
2023-10-19T03:37:48.806Z,101077.58
2023-10-19T03:40:26.783Z,101075.48
2023-10-19T03:42:56.086Z,101075.23
2023-10-19T03:45:25.690Z,101071.82
2023-10-19T03:47:56.963Z,101071.41
2023-10-19T03:50:26.695Z,101074.81
2023-10-19T03:52:55.021Z,101073.73
2023-10-19T03:55:24.764Z,101074.40
2023-10-19T03:57:56.221Z,101065.59
2023-10-19T04:00:29.996Z,101062.27
2023-10-19T04:03:00.348Z,101060.74
2023-10-19T04:05:29.849Z,101058.64
2023-10-19T04:08:02.859Z,101054.05
2023-10-19T04:10:31.885Z,101057.51
2023-10-19T04:13:02.946Z,101049.41
2023-10-19T04:15:35.496Z,101052.38
2023-10-19T04:18:14.416Z,101055.77
2023-10-19T04:20:51.449Z,101053.21
2023-10-19T04:23:22.121Z,101050.05
2023-10-19T04:25:50.429Z,101048.48
2023-10-19T04:28:31.711Z,101053.88
2023-10-19T04:31:07.806Z,101053.01
2023-10-19T04:33:36.520Z,101045.14
2023-10-19T04:36:06.860Z,101046.06
2023-10-19T04:38:35.052Z,101048.05
2023-10-19T04:41:11.171Z,101043.81
2023-10-19T04:43:41.247Z,101046.54
2023-10-19T04:46:12.898Z,101044.12
2023-10-19T04:48:43.404Z,101036.66
2023-10-19T04:51:12.537Z,101031.96
2023-10-19T04:53:41.115Z,101033.33
2023-10-19T04:56:10.472Z,101031.06
2023-10-19T04:58:38.642Z,101035.18
2023-10-19T05:01:07.402Z,101034.73
2023-10-19T05:03:36.735Z,101039.34
2023-10-19T05:06:05.186Z,101040.48
2023-10-19T05:08:34.543Z,101040.17
2023-10-19T05:11:02.927Z,101040.77
2023-10-19T05:13:33.976Z,101047.31
2023-10-19T05:16:02.470Z,101054.40
2023-10-19T05:18:30.920Z,101061.16
2023-10-19T05:20:59.049Z,101058.14
2023-10-19T05:23:29.166Z,101055.70
2023-10-19T05:26:05.980Z,101052.28
2023-10-19T05:28:34.678Z,101058.05
2023-10-19T05:31:03.141Z,101054.52
2023-10-19T05:33:31.734Z,101050.54
2023-10-19T05:36:00.193Z,101036.86
2023-10-19T05:38:29.253Z,101035.35
2023-10-19T05:40:58.614Z,101034.27
2023-10-19T05:43:27.725Z,101035.17
2023-10-19T05:45:56.174Z,101035.15
2023-10-19T05:48:25.328Z,101035.21
2023-10-19T05:50:53.706Z,101035.23
2023-10-19T05:53:23.696Z,101034.48
2023-10-19T05:55:52.142Z,101038.96
2023-10-19T05:58:21.736Z,101035.11
2023-10-19T06:00:53.537Z,101033.23
2023-10-19T06:03:21.899Z,101033.20
2023-10-19T06:05:50.958Z,101034.39
2023-10-19T06:08:19.267Z,101035.94
2023-10-19T06:10:54.922Z,101036.30
2023-10-19T06:13:23.520Z,101033.34
2023-10-19T06:15:53.267Z,101031.48
2023-10-19T06:18:21.786Z,101029.74
2023-10-19T06:20:52.028Z,101031.78
2023-10-19T06:23:20.457Z,101029.23
2023-10-19T06:25:49.200Z,101023.06
2023-10-19T06:28:17.623Z,101024.05
2023-10-19T06:30:46.532Z,101021.55
2023-10-19T06:33:15.288Z,101016.33
2023-10-19T06:35:43.982Z,101012.23
2023-10-19T06:38:12.474Z,101012.42
2023-10-19T06:40:41.971Z,101007.27
2023-10-19T06:43:10.316Z,101008.64
2023-10-19T06:45:38.435Z,101008.75
2023-10-19T06:48:08.032Z,101003.67
2023-10-19T06:50:37.558Z,100995.27
2023-10-19T06:53:06.791Z,100994.42
2023-10-19T06:55:35.650Z,100985.35
2023-10-19T06:58:06.260Z,100979.90
2023-10-19T07:00:35.563Z,100965.84
2023-10-19T07:03:05.056Z,100964.06
2023-10-19T07:05:33.704Z,100962.30
2023-10-19T07:08:03.342Z,100959.78
2023-10-19T07:10:31.794Z,100952.77
2023-10-19T07:13:00.478Z,100950.38
2023-10-19T07:15:31.201Z,100945.45
2023-10-19T07:17:59.902Z,100940.92
2023-10-19T07:20:28.650Z,100938.30
2023-10-19T07:22:59.040Z,100936.41
2023-10-19T07:25:27.448Z,100935.67
2023-10-19T07:27:55.847Z,100932.73
2023-10-19T07:30:27.982Z,100926.66
2023-10-19T07:33:00.149Z,100924.58
2023-10-19T07:35:29.195Z,100921.63
2023-10-19T07:37:58.330Z,100914.76
2023-10-19T07:40:27.005Z,100911.52
2023-10-19T07:42:58.088Z,100902.02
2023-10-19T07:45:26.922Z,100903.02
2023-10-19T07:47:55.270Z,100898.66
2023-10-19T07:50:24.175Z,100891.63
2023-10-19T07:52:54.920Z,100889.69
2023-10-19T07:55:26.633Z,100886.89
2023-10-19T07:57:55.566Z,100887.41
2023-10-19T08:00:24.900Z,100883.78
2023-10-19T08:02:56.910Z,100875.58
2023-10-19T08:05:25.337Z,100875.86
2023-10-19T08:07:53.959Z,100873.11
2023-10-19T08:10:22.349Z,100871.98
2023-10-19T08:12:51.227Z,100862.88
2023-10-19T08:15:21.487Z,100860.42
2023-10-19T08:17:52.500Z,100857.80
2023-10-19T08:20:33.401Z,100847.14
2023-10-19T08:23:06.763Z,100848.95
2023-10-19T08:25:48.437Z,100843.70
2023-10-19T08:28:24.369Z,100838.16
2023-10-19T08:30:59.330Z,100831.30
2023-10-19T08:33:28.883Z,100831.79
2023-10-19T08:35:58.135Z,100828.89
2023-10-19T08:38:27.826Z,100826.70
2023-10-19T08:40:56.493Z,100824.39
2023-10-19T08:43:25.701Z,100821.71
2023-10-19T08:45:55.038Z,100813.48
2023-10-19T08:48:24.397Z,100811.14
2023-10-19T08:50:54.299Z,100808.38
2023-10-19T08:53:23.628Z,100802.38
2023-10-19T08:55:55.718Z,100797.45
2023-10-19T08:58:24.470Z,100786.16
2023-10-19T09:00:56.959Z,100783.27
2023-10-19T09:03:27.163Z,100776.21
2023-10-19T09:05:57.983Z,100767.45
2023-10-19T09:08:26.485Z,100758.92
2023-10-19T09:10:55.800Z,100745.30
2023-10-19T09:13:25.850Z,100742.40
2023-10-19T09:15:55.559Z,100733.77
2023-10-19T09:18:29.561Z,100728.77
2023-10-19T09:21:09.034Z,100727.58
2023-10-19T09:23:38.343Z,100716.02
2023-10-19T09:26:08.622Z,100712.09
2023-10-19T09:28:39.463Z,100709.49
2023-10-19T09:31:11.544Z,100707.64
2023-10-19T09:33:47.193Z,100708.05
2023-10-19T09:36:16.145Z,100705.38
2023-10-19T09:38:54.704Z,100701.42
2023-10-19T09:41:23.459Z,100689.65
2023-10-19T09:43:52.376Z,100683.88
2023-10-19T09:46:30.840Z,100684.55
2023-10-19T09:49:00.805Z,100679.86
2023-10-19T09:51:29.930Z,100667.00
2023-10-19T09:54:06.031Z,100660.98
2023-10-19T09:56:42.711Z,100656.34
2023-10-19T09:59:30.432Z,100658.08
2023-10-19T10:02:04.578Z,100667.52
2023-10-19T10:04:34.014Z,100669.30
2023-10-19T10:07:07.368Z,100659.25
2023-10-19T10:09:41.432Z,100659.05
2023-10-19T10:12:28.188Z,100657.02
2023-10-19T10:14:59.937Z,100660.85
2023-10-19T10:17:29.431Z,100664.84
2023-10-19T10:20:20.241Z,100666.06
2023-10-19T10:23:18.668Z,100663.58
2023-10-19T10:25:50.379Z,100651.63
2023-10-19T10:28:18.755Z,100646.54
2023-10-19T10:31:09.330Z,100640.74
2023-10-19T10:33:46.644Z,100633.61
2023-10-19T10:36:16.198Z,100625.09
2023-10-19T10:38:45.780Z,100630.30
2023-10-19T10:41:21.609Z,100620.62
2023-10-19T10:43:55.360Z,100610.26
2023-10-19T10:46:31.012Z,100607.86
2023-10-19T10:48:59.321Z,100595.27
2023-10-19T10:51:32.517Z,100592.75
2023-10-19T10:54:01.481Z,100586.27
2023-10-19T10:56:30.022Z,100590.76
2023-10-19T10:58:58.541Z,100585.10
2023-10-19T11:01:36.536Z,100578.30
2023-10-19T11:04:12.401Z,100571.61
2023-10-19T11:06:50.408Z,100561.81
2023-10-19T11:09:23.093Z,100557.30
2023-10-19T11:11:53.483Z,100558.18
2023-10-19T11:14:26.007Z,100559.91
2023-10-19T11:16:56.353Z,100557.42
2023-10-19T11:19:40.554Z,100566.06
2023-10-19T11:22:11.347Z,100564.66
2023-10-19T11:24:41.371Z,100551.55
2023-10-19T11:27:11.414Z,100545.85
2023-10-19T11:29:39.617Z,100538.42
2023-10-19T11:32:08.313Z,100533.11
2023-10-19T11:34:39.048Z,100522.37
2023-10-19T11:37:07.383Z,100520.45
2023-10-19T11:39:36.001Z,100509.89
2023-10-19T11:42:04.453Z,100517.91
2023-10-19T11:44:33.026Z,100500.19
2023-10-19T11:47:02.064Z,100491.67
2023-10-19T11:49:30.701Z,100483.87
2023-10-19T11:51:59.152Z,100485.10
2023-10-19T11:54:27.885Z,100475.34
2023-10-19T11:56:56.211Z,100476.06
2023-10-19T11:59:24.814Z,100474.02
2023-10-19T12:01:53.702Z,100464.19
2023-10-19T12:04:21.932Z,100459.47
2023-10-19T12:06:50.469Z,100447.95
2023-10-19T12:09:18.980Z,100447.10
2023-10-19T12:11:48.981Z,100442.71
2023-10-19T12:14:17.581Z,100445.04
2023-10-19T12:16:46.873Z,100426.17
2023-10-19T12:19:16.528Z,100422.86
2023-10-19T12:21:45.841Z,100423.06
2023-10-19T12:24:14.078Z,100422.14
2023-10-19T12:26:43.426Z,100416.10
2023-10-19T12:29:12.802Z,100414.59
2023-10-19T12:31:42.031Z,100412.11
2023-10-19T12:34:12.873Z,100405.32
2023-10-19T12:36:42.706Z,100407.98
2023-10-19T12:39:16.932Z,100408.77
2023-10-19T12:41:45.876Z,100412.14
2023-10-19T12:44:16.688Z,100411.55
2023-10-19T12:46:45.289Z,100407.80
2023-10-19T12:49:19.604Z,100393.55
2023-10-19T12:51:49.207Z,100392.84
2023-10-19T12:54:18.150Z,100385.40
2023-10-19T12:56:50.469Z,100387.15
2023-10-19T12:59:20.870Z,100379.52
2023-10-19T13:01:50.167Z,100368.08
2023-10-19T13:04:19.583Z,100357.77
2023-10-19T13:06:50.670Z,100352.52
2023-10-19T13:09:23.363Z,100350.16
2023-10-19T13:11:53.291Z,100355.73
2023-10-19T13:14:21.583Z,100358.73
2023-10-19T13:16:52.678Z,100351.98
2023-10-19T13:19:27.680Z,100348.20
2023-10-19T13:21:56.063Z,100345.67
2023-10-19T13:24:26.294Z,100352.58
2023-10-19T13:26:55.254Z,100351.54
2023-10-19T13:29:25.271Z,100332.42
2023-10-19T13:31:54.387Z,100327.39
2023-10-19T13:34:22.533Z,100327.14
2023-10-19T13:36:52.768Z,100322.42
2023-10-19T13:39:21.078Z,100315.55
2023-10-19T13:41:49.887Z,100311.76
2023-10-19T13:44:20.364Z,100309.26
2023-10-19T13:46:48.787Z,100304.06
2023-10-19T13:49:20.090Z,100299.29
2023-10-19T13:51:48.867Z,100292.41
2023-10-19T13:54:17.283Z,100287.85
2023-10-19T13:56:46.713Z,100277.66
2023-10-19T13:59:16.938Z,100277.45
2023-10-19T14:01:45.260Z,100270.56
2023-10-19T14:04:15.629Z,100265.77
2023-10-19T14:06:44.900Z,100267.15
2023-10-19T14:09:13.960Z,100262.67
2023-10-19T14:11:42.209Z,100256.98
2023-10-19T14:14:12.196Z,100251.90
2023-10-19T14:16:40.773Z,100257.02
2023-10-19T14:19:10.014Z,100251.55
2023-10-19T14:21:41.850Z,100250.92
2023-10-19T14:24:10.384Z,100246.86
2023-10-19T14:26:39.920Z,100251.70
2023-10-19T14:29:08.719Z,100257.55
2023-10-19T14:31:37.292Z,100263.15
2023-10-19T14:34:05.625Z,100259.27
2023-10-19T14:36:34.254Z,100262.08
2023-10-19T14:39:02.326Z,100259.38
2023-10-19T14:41:31.325Z,100262.02
2023-10-19T14:44:01.907Z,100254.10
2023-10-19T14:46:30.591Z,100259.72
2023-10-19T14:48:58.738Z,100258.34
2023-10-19T14:51:27.711Z,100261.16
2023-10-19T14:53:56.216Z,100267.70
2023-10-19T14:56:24.611Z,100266.37
2023-10-19T14:58:55.039Z,100259.15
2023-10-19T15:01:27.157Z,100256.13
2023-10-19T15:03:55.800Z,100259.34
2023-10-19T15:06:24.253Z,100264.86
2023-10-19T15:08:52.432Z,100258.40
2023-10-19T15:11:23.407Z,100253.67
2023-10-19T15:13:52.214Z,100253.38
2023-10-19T15:16:20.518Z,100251.08
2023-10-19T15:18:49.229Z,100249.48
2023-10-19T15:21:18.695Z,100252.66
2023-10-19T15:23:48.134Z,100252.01
2023-10-19T15:26:19.294Z,100246.14
2023-10-19T15:28:47.950Z,100249.32
2023-10-19T15:31:17.499Z,100244.91
2023-10-19T15:33:46.925Z,100244.70
2023-10-19T15:36:14.995Z,100243.64
2023-10-19T15:38:43.215Z,100243.17
2023-10-19T15:41:11.616Z,100236.91
2023-10-19T15:43:40.116Z,100235.83
2023-10-19T15:46:14.440Z,100236.79
2023-10-19T15:48:42.913Z,100229.03
2023-10-19T15:51:11.104Z,100226.79
2023-10-19T15:53:39.441Z,100225.77
2023-10-19T15:56:08.341Z,100214.86
2023-10-19T15:58:37.725Z,100205.23
2023-10-19T16:01:07.631Z,100201.23
2023-10-19T16:03:35.982Z,100204.98
2023-10-19T16:06:06.833Z,100210.77
2023-10-19T16:08:37.258Z,100207.49
2023-10-19T16:11:05.789Z,100212.52
2023-10-19T16:13:33.951Z,100211.98
2023-10-19T16:16:05.824Z,100212.00
2023-10-19T16:18:34.254Z,100205.53
2023-10-19T16:21:06.014Z,100192.77
2023-10-19T16:23:34.773Z,100193.85
2023-10-19T16:26:04.773Z,100198.61
2023-10-19T16:28:33.648Z,100209.36
2023-10-19T16:31:05.812Z,100204.23
2023-10-19T16:33:34.493Z,100197.35
2023-10-19T16:36:02.563Z,100198.33
2023-10-19T16:38:30.673Z,100191.98
2023-10-19T16:41:02.936Z,100183.83
2023-10-19T16:43:31.313Z,100183.34
2023-10-19T16:46:01.323Z,100178.85
2023-10-19T16:48:29.499Z,100174.73
2023-10-19T16:51:04.861Z,100172.85
2023-10-19T16:53:33.797Z,100168.08
2023-10-19T16:56:03.745Z,100163.33
2023-10-19T16:58:32.286Z,100159.14
2023-10-19T17:01:00.587Z,100163.83
2023-10-19T17:03:31.319Z,100159.36
2023-10-19T17:05:59.714Z,100163.73
2023-10-19T17:08:27.956Z,100163.59
2023-10-19T17:10:56.581Z,100168.54
2023-10-19T17:13:24.919Z,100169.34
2023-10-19T17:15:53.331Z,100163.94
2023-10-19T17:18:27.632Z,100157.91
2023-10-19T17:20:55.801Z,100164.41
2023-10-19T17:23:26.735Z,100161.95
2023-10-19T17:25:56.788Z,100159.85
2023-10-19T17:28:27.613Z,100156.77
2023-10-19T17:30:55.935Z,100157.73
2023-10-19T17:33:26.256Z,100154.19
2023-10-19T17:35:54.969Z,100150.14
2023-10-19T17:38:24.559Z,100144.61
2023-10-19T17:40:58.159Z,100141.86
2023-10-19T17:43:28.506Z,100143.36
2023-10-19T17:45:58.414Z,100143.22
2023-10-19T17:48:29.142Z,100144.83
2023-10-19T17:50:58.484Z,100138.91
2023-10-19T17:53:29.634Z,100144.41
2023-10-19T17:55:58.216Z,100145.39
2023-10-19T17:58:27.153Z,100150.98
2023-10-19T18:00:55.353Z,100151.10
2023-10-19T18:03:26.266Z,100158.45
2023-10-19T18:05:55.926Z,100158.64
2023-10-19T18:08:25.691Z,100164.44
2023-10-19T18:10:54.771Z,100157.81
2023-10-19T18:13:28.402Z,100146.55
2023-10-19T18:15:56.713Z,100153.05
2023-10-19T18:18:30.367Z,100151.13
2023-10-19T18:21:01.692Z,100145.21
2023-10-19T18:23:30.086Z,100145.33
2023-10-19T18:26:02.193Z,100143.97
2023-10-19T18:28:30.781Z,100143.73
2023-10-19T18:31:00.407Z,100146.59
2023-10-19T18:33:30.642Z,100147.18
2023-10-19T18:36:03.273Z,100141.38
2023-10-19T18:38:35.652Z,100142.98
2023-10-19T18:41:09.538Z,100144.08
2023-10-19T18:43:38.006Z,100138.53
2023-10-19T18:46:06.122Z,100140.35
2023-10-19T18:48:34.819Z,100141.98
2023-10-19T18:51:07.224Z,100140.09
2023-10-19T18:53:36.262Z,100139.38
2023-10-19T18:56:09.242Z,100139.50
2023-10-19T18:58:40.981Z,100140.33
2023-10-19T19:01:10.113Z,100140.15
2023-10-19T19:03:38.296Z,100142.59
2023-10-19T19:06:08.440Z,100141.08
2023-10-19T19:08:43.246Z,100131.38
2023-10-19T19:11:17.246Z,100128.05
2023-10-19T19:13:46.603Z,100123.98
2023-10-19T19:16:15.133Z,100121.39
2023-10-19T19:18:44.731Z,100122.67
2023-10-19T19:21:20.588Z,100119.02
2023-10-19T19:23:49.304Z,100111.60
2023-10-19T19:26:18.223Z,100113.52
2023-10-19T19:28:49.328Z,100113.44
2023-10-19T19:31:19.871Z,100109.07
2023-10-19T19:33:48.422Z,100100.02
2023-10-19T19:36:20.269Z,100096.76
2023-10-19T19:38:50.035Z,100099.59
2023-10-19T19:41:21.150Z,100097.20
2023-10-19T19:43:49.934Z,100096.29
2023-10-19T19:46:19.561Z,100106.25
2023-10-19T19:48:48.494Z,100102.34
2023-10-19T19:51:18.042Z,100099.30
2023-10-19T19:53:46.404Z,100093.73
2023-10-19T19:56:14.743Z,100093.17
2023-10-19T19:58:42.969Z,100099.28
2023-10-19T20:01:12.510Z,100109.39
2023-10-19T20:03:41.466Z,100107.58
2023-10-19T20:06:11.018Z,100099.68
2023-10-19T20:08:40.826Z,100087.50
2023-10-19T20:11:11.260Z,100083.21
2023-10-19T20:13:42.133Z,100079.20
2023-10-19T20:16:10.288Z,100077.42
2023-10-19T20:18:38.803Z,100074.48
2023-10-19T20:21:07.192Z,100076.80
2023-10-19T20:23:35.960Z,100076.76
2023-10-19T20:26:04.332Z,100077.06
2023-10-19T20:28:32.764Z,100069.17
2023-10-19T20:31:01.115Z,100060.98
2023-10-19T20:33:29.928Z,100059.13
2023-10-19T20:35:58.768Z,100052.66
2023-10-19T20:38:27.739Z,100060.41
2023-10-19T20:40:56.645Z,100064.16
2023-10-19T20:43:25.135Z,100068.45
2023-10-19T20:45:54.723Z,100067.64
2023-10-19T20:48:23.236Z,100063.84
2023-10-19T20:50:51.844Z,100065.21
2023-10-19T20:53:20.259Z,100057.45
2023-10-19T20:55:48.854Z,100052.80
2023-10-19T20:58:23.856Z,100062.59
2023-10-19T21:00:52.639Z,100061.58
2023-10-19T21:03:20.798Z,100060.70
2023-10-19T21:05:49.613Z,100059.38
2023-10-19T21:08:18.010Z,100057.84
2023-10-19T21:10:46.288Z,100049.16
2023-10-19T21:13:15.237Z,100050.41
2023-10-19T21:15:43.305Z,100042.21
2023-10-19T21:18:12.189Z,100044.10
2023-10-19T21:20:40.634Z,100037.98
2023-10-19T21:23:09.790Z,100038.44
2023-10-19T21:25:38.150Z,100038.23
2023-10-19T21:28:07.085Z,100035.63
2023-10-19T21:30:35.281Z,100034.65
2023-10-19T21:33:03.860Z,100029.52
2023-10-19T21:35:32.137Z,100028.67
2023-10-19T21:38:00.370Z,100029.30
2023-10-19T21:40:29.669Z,100027.36
2023-10-19T21:42:58.066Z,100030.51
2023-10-19T21:45:26.130Z,100031.34
2023-10-19T21:47:54.624Z,100021.21
2023-10-19T21:50:22.958Z,100019.94
2023-10-19T21:52:51.708Z,100013.65
2023-10-19T21:55:19.918Z,100011.60
2023-10-19T21:57:48.642Z,100004.98
2023-10-19T22:00:28.081Z,100007.70
2023-10-19T22:03:11.721Z,100012.23
2023-10-19T22:05:43.512Z,100009.65
2023-10-19T22:08:12.456Z,100008.30
2023-10-19T22:10:40.676Z,100013.58
2023-10-19T22:13:08.800Z,100019.73
2023-10-19T22:15:37.552Z,100014.33
2023-10-19T22:18:06.155Z,100010.71
2023-10-19T22:20:34.582Z,100008.93
2023-10-19T22:23:05.370Z,100007.73
2023-10-19T22:25:36.591Z,100007.48
2023-10-19T22:28:05.885Z,100008.79
2023-10-19T22:30:34.101Z,100010.91
2023-10-19T22:33:02.524Z,100016.39
2023-10-19T22:35:30.706Z,100014.63
2023-10-19T22:37:58.900Z,100012.75
2023-10-19T22:40:28.728Z,100010.20
2023-10-19T22:42:58.215Z,100016.73
2023-10-19T22:45:26.407Z,100013.33
2023-10-19T22:47:54.774Z,100014.79
2023-10-19T22:50:23.241Z,100012.04
2023-10-19T22:52:51.730Z,100010.99
2023-10-19T22:55:20.357Z,100004.29
2023-10-19T22:57:52.580Z,99996.50
2023-10-19T23:00:21.345Z,99999.63
2023-10-19T23:02:50.054Z,100001.86
2023-10-19T23:05:18.926Z,100007.48
2023-10-19T23:07:50.506Z,100005.70
2023-10-19T23:10:21.064Z,100002.77
2023-10-19T23:12:52.387Z,100000.58
2023-10-19T23:15:32.566Z,99997.30
2023-10-19T23:18:02.204Z,100004.77
2023-10-19T23:20:34.017Z,100010.50
2023-10-19T23:23:05.817Z,100005.38
2023-10-19T23:25:37.305Z,100006.00
2023-10-19T23:28:13.662Z,100001.41
2023-10-19T23:30:44.585Z,99996.35
2023-10-19T23:33:14.007Z,99997.91
2023-10-19T23:35:42.231Z,100002.81
2023-10-19T23:38:10.760Z,99997.21
2023-10-19T23:40:39.362Z,100002.09
2023-10-19T23:43:07.608Z,99998.92
2023-10-19T23:45:39.168Z,99997.64
2023-10-19T23:48:12.344Z,99989.71
2023-10-19T23:50:40.877Z,99976.92
2023-10-19T23:53:10.464Z,99965.55
2023-10-19T23:55:42.020Z,99964.41
2023-10-19T23:58:10.964Z,99958.71
